TimeEST,TemperatureF,Dew PointF,Humidity,Sea Level PressureIn,VisibilityMPH,Wind Direction,Wind SpeedMPH,Gust SpeedMPH,PrecipitationIn,Events,Conditions,WindDirDegrees,DateUTC
12:53 AM,69.1,66.9,93,30.04,10.0,NW,6.9,-,N/A,,Clear,320,2012-12-19 05:53:00
1:53 AM,68.0,66.0,93,30.04,10.0,NW,3.5,-,N/A,,Clear,320,2012-12-19 06:53:00
2:53 AM,66.0,64.9,96,30.04,10.0,NW,3.5,-,N/A,,Clear,320,2012-12-19 07:53:00
3:53 AM,64.9,64.9,100,30.04,10.0,Calm,Calm,-,N/A,,Clear,0,2012-12-19 08:53:00
4:53 AM,64.0,61.0,90,30.04,10.0,North,3.5,-,N/A,,Clear,350,2012-12-19 09:53:00
5:53 AM,63.0,57.9,84,30.05,10.0,NNW,3.5,-,N/A,,Clear,340,2012-12-19 10:53:00
6:53 AM,63.0,57.9,84,30.07,10.0,North,3.5,-,N/A,,Clear,350,2012-12-19 11:53:00
7:53 AM,64.0,57.9,80,30.08,10.0,North,4.6,-,N/A,,Clear,360,2012-12-19 12:53:00
8:53 AM,70.0,57.0,63,30.11,10.0,North,3.5,-,N/A,,Clear,10,2012-12-19 13:53:00
9:53 AM,75.9,55.9,50,30.12,10.0,North,5.8,-,N/A,,Clear,10,2012-12-19 14:53:00
10:53 AM,80.1,57.9,47,30.12,10.0,Calm,Calm,-,N/A,,Clear,0,2012-12-19 15:53:00
11:53 AM,82.0,59.0,45,30.10,10.0,East,6.9,-,N/A,,Clear,90,2012-12-19 16:53:00
12:53 PM,81.0,64.0,56,30.07,10.0,East,8.1,-,N/A,,Scattered Clouds,90,2012-12-19 17:53:00
1:53 PM,81.0,64.0,56,30.05,10.0,East,6.9,-,N/A,,Scattered Clouds,100,2012-12-19 18:53:00
2:53 PM,81.0,63.0,54,30.05,10.0,ENE,8.1,-,N/A,,Partly Cloudy,70,2012-12-19 19:53:00
3:53 PM,80.1,63.0,56,30.05,10.0,East,8.1,-,N/A,,Clear,80,2012-12-19 20:53:00
4:53 PM,78.1,64.0,62,30.06,10.0,East,8.1,-,N/A,,Clear,80,2012-12-19 21:53:00
5:53 PM,75.0,64.0,69,30.07,10.0,East,5.8,-,N/A,,Clear,90,2012-12-19 22:53:00
6:53 PM,73.0,64.0,73,30.08,10.0,East,5.8,-,N/A,,Clear,80,2012-12-19 23:53:00
7:53 PM,72.0,64.0,76,30.09,10.0,East,4.6,-,N/A,,Clear,100,2012-12-20 00:53:00
8:53 PM,72.0,64.0,76,30.10,10.0,East,4.6,-,N/A,,Clear,80,2012-12-20 01:53:00
9:53 PM,69.1,63.0,81,30.10,10.0,East,4.6,-,N/A,,Clear,90,2012-12-20 02:53:00
10:53 PM,68.0,62.1,81,30.10,10.0,Calm,Calm,-,N/A,,Scattered Clouds,0,2012-12-20 03:53:00
11:53 PM,69.1,63.0,81,30.09,10.0,Calm,Calm,-,N/A,,Clear,0,2012-12-20 04:53:00